sensor_id;sensor_type;location;lat;lon;timestamp;temperature;humidity
66726;HTU21D;53638;51.062;5.804;2022-08-21T00:00:18;17.64;118.99
66726;HTU21D;53638;51.062;5.804;2022-08-21T00:02:51;17.60;118.99
66726;HTU21D;53638;51.062;5.804;2022-08-21T00:05:19;17.59;118.99
66726;HTU21D;53638;51.062;5.804;2022-08-21T00:07:45;17.56;118.99
66726;HTU21D;53638;51.062;5.804;2022-08-21T00:10:12;17.55;118.99
66726;HTU21D;53638;51.062;5.804;2022-08-21T00:12:39;17.55;118.99
66726;HTU21D;53638;51.062;5.804;2022-08-21T00:15:07;17.53;118.99
66726;HTU21D;53638;51.062;5.804;2022-08-21T00:17:33;17.50;118.99
66726;HTU21D;53638;51.062;5.804;2022-08-21T00:19:59;17.49;118.99
66726;HTU21D;53638;51.062;5.804;2022-08-21T00:22:25;17.45;118.99
66726;HTU21D;53638;51.062;5.804;2022-08-21T00:24:51;17.43;118.99
66726;HTU21D;53638;51.062;5.804;2022-08-21T00:27:17;17.38;118.99
66726;HTU21D;53638;51.062;5.804;2022-08-21T00:29:43;17.34;118.99
66726;HTU21D;53638;51.062;5.804;2022-08-21T00:32:09;17.30;118.99
66726;HTU21D;53638;51.062;5.804;2022-08-21T00:34:35;17.28;118.99
66726;HTU21D;53638;51.062;5.804;2022-08-21T00:37:00;17.26;118.99
66726;HTU21D;53638;51.062;5.804;2022-08-21T00:39:26;17.25;118.99
66726;HTU21D;53638;51.062;5.804;2022-08-21T00:41:52;17.23;118.99
66726;HTU21D;53638;51.062;5.804;2022-08-21T00:44:18;17.16;118.99
66726;HTU21D;53638;51.062;5.804;2022-08-21T00:46:44;17.09;118.99
66726;HTU21D;53638;51.062;5.804;2022-08-21T00:49:11;17.03;118.99
66726;HTU21D;53638;51.062;5.804;2022-08-21T00:51:39;16.98;118.99
66726;HTU21D;53638;51.062;5.804;2022-08-21T00:54:07;16.95;118.99
66726;HTU21D;53638;51.062;5.804;2022-08-21T00:56:35;16.93;118.99
66726;HTU21D;53638;51.062;5.804;2022-08-21T00:59:05;16.91;118.99
66726;HTU21D;53638;51.062;5.804;2022-08-21T01:01:32;16.88;118.99
66726;HTU21D;53638;51.062;5.804;2022-08-21T01:03:57;16.82;118.99
66726;HTU21D;53638;51.062;5.804;2022-08-21T01:06:23;16.81;118.99
66726;HTU21D;53638;51.062;5.804;2022-08-21T01:08:49;16.80;118.99
66726;HTU21D;53638;51.062;5.804;2022-08-21T01:11:16;16.78;118.99
66726;HTU21D;53638;51.062;5.804;2022-08-21T01:13:43;16.77;118.99
66726;HTU21D;53638;51.062;5.804;2022-08-21T01:16:17;16.76;118.99
66726;HTU21D;53638;51.062;5.804;2022-08-21T01:18:45;16.71;118.99
66726;HTU21D;53638;51.062;5.804;2022-08-21T01:21:19;16.66;118.99
66726;HTU21D;53638;51.062;5.804;2022-08-21T01:23:49;16.64;118.99
66726;HTU21D;53638;51.062;5.804;2022-08-21T01:26:21;16.61;118.99
66726;HTU21D;53638;51.062;5.804;2022-08-21T01:29:00;16.58;118.99
66726;HTU21D;53638;51.062;5.804;2022-08-21T01:31:28;16.52;118.99
66726;HTU21D;53638;51.062;5.804;2022-08-21T01:33:56;16.50;118.99
66726;HTU21D;53638;51.062;5.804;2022-08-21T01:36:23;16.48;118.99
66726;HTU21D;53638;51.062;5.804;2022-08-21T01:38:49;16.47;118.99
66726;HTU21D;53638;51.062;5.804;2022-08-21T01:41:15;16.42;118.99
66726;HTU21D;53638;51.062;5.804;2022-08-21T01:43:43;16.40;118.99
66726;HTU21D;53638;51.062;5.804;2022-08-21T01:46:11;16.35;118.99
66726;HTU21D;53638;51.062;5.804;2022-08-21T01:48:37;16.30;118.99
66726;HTU21D;53638;51.062;5.804;2022-08-21T01:51:05;16.26;118.99
66726;HTU21D;53638;51.062;5.804;2022-08-21T01:53:33;16.25;118.99
66726;HTU21D;53638;51.062;5.804;2022-08-21T01:56:03;16.22;118.99
66726;HTU21D;53638;51.062;5.804;2022-08-21T01:58:29;16.18;118.99
66726;HTU21D;53638;51.062;5.804;2022-08-21T02:00:55;16.14;118.99
66726;HTU21D;53638;51.062;5.804;2022-08-21T02:03:21;16.11;118.99
66726;HTU21D;53638;51.062;5.804;2022-08-21T02:05:47;16.05;118.99
66726;HTU21D;53638;51.062;5.804;2022-08-21T02:08:13;16.03;118.99
66726;HTU21D;53638;51.062;5.804;2022-08-21T02:10:38;16.01;118.99
66726;HTU21D;53638;51.062;5.804;2022-08-21T02:13:06;15.98;118.99
66726;HTU21D;53638;51.062;5.804;2022-08-21T02:15:33;15.95;118.99
66726;HTU21D;53638;51.062;5.804;2022-08-21T02:18:00;15.91;118.99
66726;HTU21D;53638;51.062;5.804;2022-08-21T02:20:30;15.90;118.99
66726;HTU21D;53638;51.062;5.804;2022-08-21T02:22:56;15.86;118.99
66726;HTU21D;53638;51.062;5.804;2022-08-21T02:25:26;15.82;118.99
66726;HTU21D;53638;51.062;5.804;2022-08-21T02:27:52;15.78;118.99
66726;HTU21D;53638;51.062;5.804;2022-08-21T02:30:23;15.73;118.99
66726;HTU21D;53638;51.062;5.804;2022-08-21T02:32:49;15.71;118.99
66726;HTU21D;53638;51.062;5.804;2022-08-21T02:35:15;15.70;118.99
66726;HTU21D;53638;51.062;5.804;2022-08-21T02:40:13;15.66;118.99
66726;HTU21D;53638;51.062;5.804;2022-08-21T02:42:39;15.61;118.99
66726;HTU21D;53638;51.062;5.804;2022-08-21T02:45:07;15.57;118.99
66726;HTU21D;53638;51.062;5.804;2022-08-21T02:47:33;15.55;118.99
66726;HTU21D;53638;51.062;5.804;2022-08-21T02:49:59;15.54;118.99
66726;HTU21D;53638;51.062;5.804;2022-08-21T02:52:24;15.51;118.99
66726;HTU21D;53638;51.062;5.804;2022-08-21T02:54:50;15.49;118.99
66726;HTU21D;53638;51.062;5.804;2022-08-21T02:57:16;15.46;118.99
66726;HTU21D;53638;51.062;5.804;2022-08-21T02:59:42;15.43;118.99
66726;HTU21D;53638;51.062;5.804;2022-08-21T03:02:08;15.40;118.99
66726;HTU21D;53638;51.062;5.804;2022-08-21T03:04:33;15.38;118.99
66726;HTU21D;53638;51.062;5.804;2022-08-21T03:07:02;15.34;118.99
66726;HTU21D;53638;51.062;5.804;2022-08-21T03:09:28;15.29;118.99
66726;HTU21D;53638;51.062;5.804;2022-08-21T03:11:56;15.28;118.99
66726;HTU21D;53638;51.062;5.804;2022-08-21T03:14:21;15.25;118.99
66726;HTU21D;53638;51.062;5.804;2022-08-21T03:16:50;15.24;118.99
66726;HTU21D;53638;51.062;5.804;2022-08-21T03:19:16;15.21;118.99
66726;HTU21D;53638;51.062;5.804;2022-08-21T03:21:42;15.18;118.99
66726;HTU21D;53638;51.062;5.804;2022-08-21T03:24:10;15.17;118.99
66726;HTU21D;53638;51.062;5.804;2022-08-21T03:26:35;15.14;118.99
66726;HTU21D;53638;51.062;5.804;2022-08-21T03:29:01;15.12;118.99
66726;HTU21D;53638;51.062;5.804;2022-08-21T03:31:27;15.11;118.99
66726;HTU21D;53638;51.062;5.804;2022-08-21T03:33:57;15.10;118.99
66726;HTU21D;53638;51.062;5.804;2022-08-21T03:36:23;15.07;118.99
66726;HTU21D;53638;51.062;5.804;2022-08-21T03:38:51;15.04;118.99
66726;HTU21D;53638;51.062;5.804;2022-08-21T03:41:17;15.03;118.99
66726;HTU21D;53638;51.062;5.804;2022-08-21T03:43:43;15.02;118.99
66726;HTU21D;53638;51.062;5.804;2022-08-21T03:46:09;14.98;118.99
66726;HTU21D;53638;51.062;5.804;2022-08-21T03:48:37;14.96;118.99
66726;HTU21D;53638;51.062;5.804;2022-08-21T03:51:03;14.94;118.99
66726;HTU21D;53638;51.062;5.804;2022-08-21T03:53:29;14.92;118.99
66726;HTU21D;53638;51.062;5.804;2022-08-21T03:55:56;14.91;118.99
66726;HTU21D;53638;51.062;5.804;2022-08-21T03:58:24;14.88;118.99
66726;HTU21D;53638;51.062;5.804;2022-08-21T04:00:55;14.88;118.99
66726;HTU21D;53638;51.062;5.804;2022-08-21T04:03:22;14.86;118.99
66726;HTU21D;53638;51.062;5.804;2022-08-21T04:05:48;14.84;118.99
66726;HTU21D;53638;51.062;5.804;2022-08-21T04:08:15;14.81;118.99
66726;HTU21D;53638;51.062;5.804;2022-08-21T04:10:44;14.80;118.99
66726;HTU21D;53638;51.062;5.804;2022-08-21T04:13:13;14.79;118.99
66726;HTU21D;53638;51.062;5.804;2022-08-21T04:15:42;14.75;118.99
66726;HTU21D;53638;51.062;5.804;2022-08-21T04:18:10;14.73;118.99
66726;HTU21D;53638;51.062;5.804;2022-08-21T04:20:36;14.70;118.99
66726;HTU21D;53638;51.062;5.804;2022-08-21T04:23:02;14.70;118.99
66726;HTU21D;53638;51.062;5.804;2022-08-21T04:25:28;14.67;118.99
66726;HTU21D;53638;51.062;5.804;2022-08-21T04:27:55;14.66;118.99
66726;HTU21D;53638;51.062;5.804;2022-08-21T04:30:22;14.67;118.99
66726;HTU21D;53638;51.062;5.804;2022-08-21T04:32:50;14.67;118.99
66726;HTU21D;53638;51.062;5.804;2022-08-21T04:35:20;14.67;118.99
66726;HTU21D;53638;51.062;5.804;2022-08-21T04:37:46;14.66;118.99
66726;HTU21D;53638;51.062;5.804;2022-08-21T04:40:14;14.67;118.99
66726;HTU21D;53638;51.062;5.804;2022-08-21T04:42:44;14.64;118.99
66726;HTU21D;53638;51.062;5.804;2022-08-21T04:45:17;14.63;118.99
66726;HTU21D;53638;51.062;5.804;2022-08-21T04:47:49;14.62;118.99
66726;HTU21D;53638;51.062;5.804;2022-08-21T04:50:15;14.63;118.99
66726;HTU21D;53638;51.062;5.804;2022-08-21T04:52:53;14.60;118.99
66726;HTU21D;53638;51.062;5.804;2022-08-21T04:55:20;14.65;118.99
66726;HTU21D;53638;51.062;5.804;2022-08-21T04:57:47;14.70;118.99
66726;HTU21D;53638;51.062;5.804;2022-08-21T05:00:17;14.72;118.99
66726;HTU21D;53638;51.062;5.804;2022-08-21T05:02:44;14.70;118.99
66726;HTU21D;53638;51.062;5.804;2022-08-21T05:05:13;14.70;118.99
66726;HTU21D;53638;51.062;5.804;2022-08-21T05:07:41;14.73;118.99
66726;HTU21D;53638;51.062;5.804;2022-08-21T05:10:08;14.74;118.99
66726;HTU21D;53638;51.062;5.804;2022-08-21T05:12:34;14.75;118.99
66726;HTU21D;53638;51.062;5.804;2022-08-21T05:15:01;14.77;118.99
66726;HTU21D;53638;51.062;5.804;2022-08-21T05:17:28;14.82;118.99
66726;HTU21D;53638;51.062;5.804;2022-08-21T05:19:54;14.81;118.99
66726;HTU21D;53638;51.062;5.804;2022-08-21T05:22:22;14.82;118.99
66726;HTU21D;53638;51.062;5.804;2022-08-21T05:24:50;14.83;118.99
66726;HTU21D;53638;51.062;5.804;2022-08-21T05:27:16;14.87;118.99
66726;HTU21D;53638;51.062;5.804;2022-08-21T05:29:43;14.91;118.99
66726;HTU21D;53638;51.062;5.804;2022-08-21T05:32:11;14.93;118.99
66726;HTU21D;53638;51.062;5.804;2022-08-21T05:34:37;15.00;118.99
66726;HTU21D;53638;51.062;5.804;2022-08-21T05:37:05;15.07;118.99
66726;HTU21D;53638;51.062;5.804;2022-08-21T05:39:31;15.10;118.99
66726;HTU21D;53638;51.062;5.804;2022-08-21T05:41:57;15.16;118.99
66726;HTU21D;53638;51.062;5.804;2022-08-21T05:44:23;15.21;118.99
66726;HTU21D;53638;51.062;5.804;2022-08-21T05:46:49;15.26;118.99
66726;HTU21D;53638;51.062;5.804;2022-08-21T05:49:15;15.34;118.99
66726;HTU21D;53638;51.062;5.804;2022-08-21T05:51:41;15.40;118.99
66726;HTU21D;53638;51.062;5.804;2022-08-21T05:54:07;15.44;118.99
66726;HTU21D;53638;51.062;5.804;2022-08-21T05:56:33;15.48;118.99
66726;HTU21D;53638;51.062;5.804;2022-08-21T05:58:59;15.55;118.99
66726;HTU21D;53638;51.062;5.804;2022-08-21T06:01:25;15.58;118.99
66726;HTU21D;53638;51.062;5.804;2022-08-21T06:03:52;15.65;118.99
66726;HTU21D;53638;51.062;5.804;2022-08-21T06:06:17;15.70;118.99
66726;HTU21D;53638;51.062;5.804;2022-08-21T06:08:43;15.76;118.99
66726;HTU21D;53638;51.062;5.804;2022-08-21T06:11:10;15.81;118.99
66726;HTU21D;53638;51.062;5.804;2022-08-21T06:13:36;15.90;118.99
66726;HTU21D;53638;51.062;5.804;2022-08-21T06:16:09;15.98;118.99
66726;HTU21D;53638;51.062;5.804;2022-08-21T06:18:37;16.02;118.99
66726;HTU21D;53638;51.062;5.804;2022-08-21T06:21:03;16.06;118.99
66726;HTU21D;53638;51.062;5.804;2022-08-21T06:23:29;16.11;118.99
66726;HTU21D;53638;51.062;5.804;2022-08-21T06:25:56;16.17;118.99
66726;HTU21D;53638;51.062;5.804;2022-08-21T06:28:22;16.22;118.99
66726;HTU21D;53638;51.062;5.804;2022-08-21T06:30:48;16.28;118.99
66726;HTU21D;53638;51.062;5.804;2022-08-21T06:33:14;16.32;118.99
66726;HTU21D;53638;51.062;5.804;2022-08-21T06:35:40;16.40;118.99
66726;HTU21D;53638;51.062;5.804;2022-08-21T06:38:06;16.43;118.99
66726;HTU21D;53638;51.062;5.804;2022-08-21T06:40:32;16.49;118.99
66726;HTU21D;53638;51.062;5.804;2022-08-21T06:42:58;16.56;118.99
66726;HTU21D;53638;51.062;5.804;2022-08-21T06:45:30;16.60;118.99
66726;HTU21D;53638;51.062;5.804;2022-08-21T06:47:56;16.64;118.99
66726;HTU21D;53638;51.062;5.804;2022-08-21T06:50:22;16.71;118.99
66726;HTU21D;53638;51.062;5.804;2022-08-21T06:52:47;16.75;118.99
66726;HTU21D;53638;51.062;5.804;2022-08-21T06:55:13;16.80;118.99
66726;HTU21D;53638;51.062;5.804;2022-08-21T06:57:39;16.87;118.99
66726;HTU21D;53638;51.062;5.804;2022-08-21T07:00:06;16.92;118.99
66726;HTU21D;53638;51.062;5.804;2022-08-21T07:02:34;16.96;118.99
66726;HTU21D;53638;51.062;5.804;2022-08-21T07:05:00;17.03;118.99
66726;HTU21D;53638;51.062;5.804;2022-08-21T07:07:26;17.08;118.99
66726;HTU21D;53638;51.062;5.804;2022-08-21T07:09:52;17.14;118.99
66726;HTU21D;53638;51.062;5.804;2022-08-21T07:12:19;17.19;118.99
66726;HTU21D;53638;51.062;5.804;2022-08-21T07:14:45;17.22;118.99
66726;HTU21D;53638;51.062;5.804;2022-08-21T07:17:11;17.33;118.99
66726;HTU21D;53638;51.062;5.804;2022-08-21T07:19:37;17.37;118.99
66726;HTU21D;53638;51.062;5.804;2022-08-21T07:22:03;17.49;118.99
66726;HTU21D;53638;51.062;5.804;2022-08-21T07:24:29;17.55;118.99
66726;HTU21D;53638;51.062;5.804;2022-08-21T07:26:55;17.64;118.99
66726;HTU21D;53638;51.062;5.804;2022-08-21T07:29:21;17.76;118.99
66726;HTU21D;53638;51.062;5.804;2022-08-21T07:31:47;17.85;118.99
66726;HTU21D;53638;51.062;5.804;2022-08-21T07:34:13;17.94;118.99
66726;HTU21D;53638;51.062;5.804;2022-08-21T07:36:39;18.04;118.99
66726;HTU21D;53638;51.062;5.804;2022-08-21T07:39:05;18.12;118.99
66726;HTU21D;53638;51.062;5.804;2022-08-21T07:41:31;18.21;118.99
66726;HTU21D;53638;51.062;5.804;2022-08-21T07:43:58;18.29;118.99
66726;HTU21D;53638;51.062;5.804;2022-08-21T07:46:25;18.40;118.99
66726;HTU21D;53638;51.062;5.804;2022-08-21T07:48:52;18.51;118.99
66726;HTU21D;53638;51.062;5.804;2022-08-21T07:51:22;18.66;118.99
66726;HTU21D;53638;51.062;5.804;2022-08-21T07:53:51;18.77;118.99
66726;HTU21D;53638;51.062;5.804;2022-08-21T07:56:18;18.89;118.99
66726;HTU21D;53638;51.062;5.804;2022-08-21T07:58:44;19.00;118.99
66726;HTU21D;53638;51.062;5.804;2022-08-21T08:01:11;19.12;118.99
66726;HTU21D;53638;51.062;5.804;2022-08-21T08:03:37;19.24;118.99
66726;HTU21D;53638;51.062;5.804;2022-08-21T08:06:05;19.37;118.99
66726;HTU21D;53638;51.062;5.804;2022-08-21T08:08:32;19.42;118.99
66726;HTU21D;53638;51.062;5.804;2022-08-21T08:10:58;19.46;118.99
66726;HTU21D;53638;51.062;5.804;2022-08-21T08:13:25;19.46;118.99
66726;HTU21D;53638;51.062;5.804;2022-08-21T08:15:51;19.47;118.99
66726;HTU21D;53638;51.062;5.804;2022-08-21T08:18:17;19.50;118.99
66726;HTU21D;53638;51.062;5.804;2022-08-21T08:20:43;19.50;118.99
66726;HTU21D;53638;51.062;5.804;2022-08-21T08:23:11;19.59;118.99
66726;HTU21D;53638;51.062;5.804;2022-08-21T08:25:38;19.71;118.99
66726;HTU21D;53638;51.062;5.804;2022-08-21T08:28:05;19.86;118.99
66726;HTU21D;53638;51.062;5.804;2022-08-21T08:30:31;20.00;118.99
66726;HTU21D;53638;51.062;5.804;2022-08-21T08:32:57;20.21;118.99
66726;HTU21D;53638;51.062;5.804;2022-08-21T08:35:25;20.36;118.99
66726;HTU21D;53638;51.062;5.804;2022-08-21T08:37:53;20.48;118.99
66726;HTU21D;53638;51.062;5.804;2022-08-21T08:40:30;20.54;118.99
66726;HTU21D;53638;51.062;5.804;2022-08-21T08:42:59;20.54;118.99
66726;HTU21D;53638;51.062;5.804;2022-08-21T08:45:26;20.56;118.99
66726;HTU21D;53638;51.062;5.804;2022-08-21T08:47:57;20.59;118.99
66726;HTU21D;53638;51.062;5.804;2022-08-21T08:50:38;20.61;118.99
66726;HTU21D;53638;51.062;5.804;2022-08-21T08:53:12;20.66;118.99
66726;HTU21D;53638;51.062;5.804;2022-08-21T08:55:42;20.68;118.99
66726;HTU21D;53638;51.062;5.804;2022-08-21T08:58:14;20.73;118.99
66726;HTU21D;53638;51.062;5.804;2022-08-21T09:00:47;20.72;118.99
66726;HTU21D;53638;51.062;5.804;2022-08-21T09:03:15;20.77;118.99
66726;HTU21D;53638;51.062;5.804;2022-08-21T09:05:48;20.80;118.99
66726;HTU21D;53638;51.062;5.804;2022-08-21T09:11:03;21.04;118.99
66726;HTU21D;53638;51.062;5.804;2022-08-21T09:19:04;21.37;118.68
66726;HTU21D;53638;51.062;5.804;2022-08-21T09:22:03;21.47;118.37
66726;HTU21D;53638;51.062;5.804;2022-08-21T09:24:54;21.55;118.50
66726;HTU21D;53638;51.062;5.804;2022-08-21T09:27:25;21.69;117.38
66726;HTU21D;53638;51.062;5.804;2022-08-21T09:29:54;21.78;117.12
66726;HTU21D;53638;51.062;5.804;2022-08-21T09:32:25;21.97;116.92
66726;HTU21D;53638;51.062;5.804;2022-08-21T09:34:59;22.08;115.55
66726;HTU21D;53638;51.062;5.804;2022-08-21T09:37:28;22.06;115.48
66726;HTU21D;53638;51.062;5.804;2022-08-21T09:39:55;22.16;115.53
66726;HTU21D;53638;51.062;5.804;2022-08-21T09:42:27;22.24;114.90
66726;HTU21D;53638;51.062;5.804;2022-08-21T09:45:09;22.33;114.55
66726;HTU21D;53638;51.062;5.804;2022-08-21T09:47:36;22.37;113.54
66726;HTU21D;53638;51.062;5.804;2022-08-21T09:50:11;22.40;112.50
66726;HTU21D;53638;51.062;5.804;2022-08-21T09:52:45;22.49;113.26
66726;HTU21D;53638;51.062;5.804;2022-08-21T09:58:09;22.80;112.75
66726;HTU21D;53638;51.062;5.804;2022-08-21T10:00:35;22.94;112.13
66726;HTU21D;53638;51.062;5.804;2022-08-21T10:03:12;23.14;111.13
66726;HTU21D;53638;51.062;5.804;2022-08-21T10:05:39;23.30;110.06
66726;HTU21D;53638;51.062;5.804;2022-08-21T10:08:17;23.37;107.76
66726;HTU21D;53638;51.062;5.804;2022-08-21T10:10:43;23.44;108.58
66726;HTU21D;53638;51.062;5.804;2022-08-21T10:22:00;24.11;105.62
66726;HTU21D;53638;51.062;5.804;2022-08-21T10:24:33;24.18;104.26
66726;HTU21D;53638;51.062;5.804;2022-08-21T10:30:07;24.34;102.53
66726;HTU21D;53638;51.062;5.804;2022-08-21T10:40:21;24.57;99.69
66726;HTU21D;53638;51.062;5.804;2022-08-21T10:42:59;24.62;98.68
66726;HTU21D;53638;51.062;5.804;2022-08-21T10:45:52;24.82;97.37
66726;HTU21D;53638;51.062;5.804;2022-08-21T10:51:06;27.28;89.88
66726;HTU21D;53638;51.062;5.804;2022-08-21T10:53:50;28.73;82.78
66726;HTU21D;53638;51.062;5.804;2022-08-21T10:56:30;30.06;78.90
66726;HTU21D;53638;51.062;5.804;2022-08-21T10:59:26;31.20;71.88
66726;HTU21D;53638;51.062;5.804;2022-08-21T11:02:03;31.29;68.58
66726;HTU21D;53638;51.062;5.804;2022-08-21T11:04:46;30.64;70.48
66726;HTU21D;53638;51.062;5.804;2022-08-21T11:07:32;30.54;70.32
66726;HTU21D;53638;51.062;5.804;2022-08-21T11:10:08;30.44;69.58
66726;HTU21D;53638;51.062;5.804;2022-08-21T11:12:44;30.23;70.26
66726;HTU21D;53638;51.062;5.804;2022-08-21T11:15:25;30.53;68.65
66726;HTU21D;53638;51.062;5.804;2022-08-21T11:18:17;31.18;67.27
66726;HTU21D;53638;51.062;5.804;2022-08-21T11:20:59;31.60;65.38
66726;HTU21D;53638;51.062;5.804;2022-08-21T11:23:53;31.92;65.79
66726;HTU21D;53638;51.062;5.804;2022-08-21T11:26:33;32.52;63.20
66726;HTU21D;53638;51.062;5.804;2022-08-21T11:29:09;32.24;63.17
66726;HTU21D;53638;51.062;5.804;2022-08-21T11:31:57;31.78;64.51
66726;HTU21D;53638;51.062;5.804;2022-08-21T11:34:46;31.82;63.96
66726;HTU21D;53638;51.062;5.804;2022-08-21T11:37:19;32.44;61.89
66726;HTU21D;53638;51.062;5.804;2022-08-21T11:40:03;33.51;58.90
66726;HTU21D;53638;51.062;5.804;2022-08-21T11:42:43;34.11;56.81
66726;HTU21D;53638;51.062;5.804;2022-08-21T11:48:07;35.53;53.94
66726;HTU21D;53638;51.062;5.804;2022-08-21T11:50:38;35.66;53.01
66726;HTU21D;53638;51.062;5.804;2022-08-21T11:53:26;35.45;53.17
66726;HTU21D;53638;51.062;5.804;2022-08-21T11:56:05;35.57;51.96
66726;HTU21D;53638;51.062;5.804;2022-08-21T11:58:40;35.51;51.60
66726;HTU21D;53638;51.062;5.804;2022-08-21T12:01:36;35.53;50.56
66726;HTU21D;53638;51.062;5.804;2022-08-21T12:04:16;35.13;52.16
66726;HTU21D;53638;51.062;5.804;2022-08-21T12:06:44;35.40;51.79
66726;HTU21D;53638;51.062;5.804;2022-08-21T12:09:28;36.15;51.13
66726;HTU21D;53638;51.062;5.804;2022-08-21T12:12:10;37.19;48.50
66726;HTU21D;53638;51.062;5.804;2022-08-21T12:14:42;38.32;46.71
66726;HTU21D;53638;51.062;5.804;2022-08-21T12:17:21;38.47;45.20
66726;HTU21D;53638;51.062;5.804;2022-08-21T12:19:59;38.01;44.83
66726;HTU21D;53638;51.062;5.804;2022-08-21T12:22:37;37.37;44.88
66726;HTU21D;53638;51.062;5.804;2022-08-21T12:25:11;37.27;44.90
66726;HTU21D;53638;51.062;5.804;2022-08-21T12:27:49;37.13;45.14
66726;HTU21D;53638;51.062;5.804;2022-08-21T12:30:36;37.05;46.24
66726;HTU21D;53638;51.062;5.804;2022-08-21T12:33:20;37.17;45.70
66726;HTU21D;53638;51.062;5.804;2022-08-21T12:39:43;38.51;42.76
66726;HTU21D;53638;51.062;5.804;2022-08-21T12:46:55;38.14;43.33
66726;HTU21D;53638;51.062;5.804;2022-08-21T12:55:12;39.27;41.69
66726;HTU21D;53638;51.062;5.804;2022-08-21T13:05:49;37.51;43.30
66726;HTU21D;53638;51.062;5.804;2022-08-21T13:09:33;35.93;45.21
66726;HTU21D;53638;51.062;5.804;2022-08-21T13:12:47;35.44;46.22
66726;HTU21D;53638;51.062;5.804;2022-08-21T13:16:10;35.54;46.50
66726;HTU21D;53638;51.062;5.804;2022-08-21T13:20:02;36.61;45.56
66726;HTU21D;53638;51.062;5.804;2022-08-21T13:24:51;37.35;44.39
66726;HTU21D;53638;51.062;5.804;2022-08-21T13:27:45;38.22;42.20
66726;HTU21D;53638;51.062;5.804;2022-08-21T13:40:24;37.52;43.20
66726;HTU21D;53638;51.062;5.804;2022-08-21T13:44:23;38.22;41.76
66726;HTU21D;53638;51.062;5.804;2022-08-21T14:20:13;37.69;41.18
66726;HTU21D;53638;51.062;5.804;2022-08-21T14:23:37;37.85;41.54
66726;HTU21D;53638;51.062;5.804;2022-08-21T14:31:28;38.01;38.65
66726;HTU21D;53638;51.062;5.804;2022-08-21T14:42:24;34.68;44.42
66726;HTU21D;53638;51.062;5.804;2022-08-21T14:50:14;34.61;44.25
66726;HTU21D;53638;51.062;5.804;2022-08-21T14:58:27;34.52;45.22
66726;HTU21D;53638;51.062;5.804;2022-08-21T15:11:11;31.70;48.41
66726;HTU21D;53638;51.062;5.804;2022-08-21T15:15:39;31.50;50.06
66726;HTU21D;53638;51.062;5.804;2022-08-21T16:10:14;28.50;60.18
66726;HTU21D;53638;51.062;5.804;2022-08-21T16:21:05;28.68;60.35
66726;HTU21D;53638;51.062;5.804;2022-08-21T16:24:17;28.70;60.20
66726;HTU21D;53638;51.062;5.804;2022-08-21T16:27:52;28.79;59.86
66726;HTU21D;53638;51.062;5.804;2022-08-21T16:44:29;28.94;60.23
66726;HTU21D;53638;51.062;5.804;2022-08-21T16:48:20;29.11;60.32
66726;HTU21D;53638;51.062;5.804;2022-08-21T17:00:37;29.17;59.88
66726;HTU21D;53638;51.062;5.804;2022-08-21T17:21:27;27.90;64.63
66726;HTU21D;53638;51.062;5.804;2022-08-21T17:29:43;27.54;66.45
66726;HTU21D;53638;51.062;5.804;2022-08-21T17:37:31;27.05;67.60
66726;HTU21D;53638;51.062;5.804;2022-08-21T17:41:33;26.83;68.86
66726;HTU21D;53638;51.062;5.804;2022-08-21T17:45:18;26.65;70.19
66726;HTU21D;53638;51.062;5.804;2022-08-21T17:57:35;26.21;72.07
66726;HTU21D;53638;51.062;5.804;2022-08-21T18:02:37;26.12;72.35
66726;HTU21D;53638;51.062;5.804;2022-08-21T18:08:47;25.94;76.53
66726;HTU21D;53638;51.062;5.804;2022-08-21T18:11:16;25.80;77.40
66726;HTU21D;53638;51.062;5.804;2022-08-21T18:13:42;25.64;76.52
66726;HTU21D;53638;51.062;5.804;2022-08-21T18:16:08;25.52;76.24
66726;HTU21D;53638;51.062;5.804;2022-08-21T18:18:41;25.42;76.85
66726;HTU21D;53638;51.062;5.804;2022-08-21T18:21:07;25.37;77.17
66726;HTU21D;53638;51.062;5.804;2022-08-21T18:23:35;25.32;77.92
66726;HTU21D;53638;51.062;5.804;2022-08-21T18:26:03;25.23;78.92
66726;HTU21D;53638;51.062;5.804;2022-08-21T18:28:29;25.15;78.98
66726;HTU21D;53638;51.062;5.804;2022-08-21T18:30:56;25.08;79.38
66726;HTU21D;53638;51.062;5.804;2022-08-21T18:33:23;25.00;80.33
66726;HTU21D;53638;51.062;5.804;2022-08-21T18:35:50;24.90;81.61
66726;HTU21D;53638;51.062;5.804;2022-08-21T18:38:16;24.83;82.84
66726;HTU21D;53638;51.062;5.804;2022-08-21T18:40:49;24.70;82.93
66726;HTU21D;53638;51.062;5.804;2022-08-21T18:43:15;24.57;82.71
66726;HTU21D;53638;51.062;5.804;2022-08-21T18:45:42;24.39;82.26
66726;HTU21D;53638;51.062;5.804;2022-08-21T18:48:11;24.25;82.74
66726;HTU21D;53638;51.062;5.804;2022-08-21T18:50:40;24.17;84.29
66726;HTU21D;53638;51.062;5.804;2022-08-21T18:53:06;24.09;85.52
66726;HTU21D;53638;51.062;5.804;2022-08-21T18:55:34;24.00;86.68
66726;HTU21D;53638;51.062;5.804;2022-08-21T18:58:00;23.92;87.25
66726;HTU21D;53638;51.062;5.804;2022-08-21T19:00:31;23.90;88.27
66726;HTU21D;53638;51.062;5.804;2022-08-21T19:02:59;23.81;89.10
66726;HTU21D;53638;51.062;5.804;2022-08-21T19:05:25;23.76;89.56
66726;HTU21D;53638;51.062;5.804;2022-08-21T19:07:52;23.71;90.09
66726;HTU21D;53638;51.062;5.804;2022-08-21T19:10:19;23.68;90.86
66726;HTU21D;53638;51.062;5.804;2022-08-21T19:12:47;23.65;91.50
66726;HTU21D;53638;51.062;5.804;2022-08-21T19:15:17;23.53;92.08
66726;HTU21D;53638;51.062;5.804;2022-08-21T19:17:46;23.39;92.79
66726;HTU21D;53638;51.062;5.804;2022-08-21T19:20:17;23.32;92.79
66726;HTU21D;53638;51.062;5.804;2022-08-21T19:22:43;23.29;92.46
66726;HTU21D;53638;51.062;5.804;2022-08-21T19:25:08;23.30;92.82
66726;HTU21D;53638;51.062;5.804;2022-08-21T19:27:35;23.29;93.11
66726;HTU21D;53638;51.062;5.804;2022-08-21T19:30:02;23.26;93.40
66726;HTU21D;53638;51.062;5.804;2022-08-21T19:32:29;23.13;93.21
66726;HTU21D;53638;51.062;5.804;2022-08-21T19:34:55;23.07;93.61
66726;HTU21D;53638;51.062;5.804;2022-08-21T19:37:21;22.97;94.07
66726;HTU21D;53638;51.062;5.804;2022-08-21T19:39:47;22.93;94.14
66726;HTU21D;53638;51.062;5.804;2022-08-21T19:42:15;22.92;93.25
66726;HTU21D;53638;51.062;5.804;2022-08-21T19:44:42;22.90;93.21
66726;HTU21D;53638;51.062;5.804;2022-08-21T19:47:15;22.92;93.27
66726;HTU21D;53638;51.062;5.804;2022-08-21T19:49:47;22.87;93.98
66726;HTU21D;53638;51.062;5.804;2022-08-21T19:52:14;22.82;93.85
66726;HTU21D;53638;51.062;5.804;2022-08-21T19:54:41;22.81;94.12
66726;HTU21D;53638;51.062;5.804;2022-08-21T19:57:09;22.80;94.14
66726;HTU21D;53638;51.062;5.804;2022-08-21T19:59:36;22.77;94.14
66726;HTU21D;53638;51.062;5.804;2022-08-21T20:02:03;22.75;94.21
66726;HTU21D;53638;51.062;5.804;2022-08-21T20:04:30;22.70;94.43
66726;HTU21D;53638;51.062;5.804;2022-08-21T20:06:56;22.69;95.26